sensor_id;sensor_type;location;lat;lon;timestamp;P1;durP1;ratioP1;P2;durP2;ratioP2
6791;SDS011;3433;48.730;9.108;2024-01-06T00:02:46;3.00;;;2.40;;
6791;SDS011;3433;48.730;9.108;2024-01-06T00:05:37;2.07;;;1.87;;
6791;SDS011;3433;48.730;9.108;2024-01-06T00:08:24;5.43;;;2.70;;
6791;SDS011;3433;48.730;9.108;2024-01-06T00:11:12;4.17;;;2.10;;
6791;SDS011;3433;48.730;9.108;2024-01-06T00:13:59;2.50;;;2.30;;
6791;SDS011;3433;48.730;9.108;2024-01-06T00:16:46;2.20;;;1.93;;
6791;SDS011;3433;48.730;9.108;2024-01-06T00:19:33;2.53;;;2.00;;
6791;SDS011;3433;48.730;9.108;2024-01-06T00:22:22;6.27;;;2.40;;
6791;SDS011;3433;48.730;9.108;2024-01-06T00:25:10;4.40;;;2.10;;
6791;SDS011;3433;48.730;9.108;2024-01-06T00:27:57;3.83;;;2.30;;
6791;SDS011;3433;48.730;9.108;2024-01-06T00:30:44;5.90;;;2.10;;
6791;SDS011;3433;48.730;9.108;2024-01-06T00:33:32;3.37;;;1.90;;
6791;SDS011;3433;48.730;9.108;2024-01-06T00:36:19;4.40;;;1.70;;
6791;SDS011;3433;48.730;9.108;2024-01-06T00:39:08;2.50;;;1.80;;
6791;SDS011;3433;48.730;9.108;2024-01-06T00:41:55;2.73;;;1.63;;
6791;SDS011;3433;48.730;9.108;2024-01-06T00:44:42;2.10;;;1.63;;
6791;SDS011;3433;48.730;9.108;2024-01-06T00:47:30;3.00;;;1.40;;
6791;SDS011;3433;48.730;9.108;2024-01-06T00:50:18;6.53;;;2.37;;
6791;SDS011;3433;48.730;9.108;2024-01-06T00:53:05;5.10;;;1.70;;
6791;SDS011;3433;48.730;9.108;2024-01-06T00:55:54;2.20;;;1.73;;
6791;SDS011;3433;48.730;9.108;2024-01-06T00:58:41;4.80;;;2.17;;
6791;SDS011;3433;48.730;9.108;2024-01-06T01:01:28;7.13;;;3.20;;
6791;SDS011;3433;48.730;9.108;2024-01-06T01:04:16;3.07;;;1.80;;
6791;SDS011;3433;48.730;9.108;2024-01-06T01:07:03;2.63;;;1.90;;
6791;SDS011;3433;48.730;9.108;2024-01-06T01:09:50;2.90;;;1.90;;
6791;SDS011;3433;48.730;9.108;2024-01-06T01:12:39;6.40;;;2.13;;
6791;SDS011;3433;48.730;9.108;2024-01-06T01:15:26;4.93;;;1.90;;
6791;SDS011;3433;48.730;9.108;2024-01-06T01:18:14;3.43;;;1.90;;
6791;SDS011;3433;48.730;9.108;2024-01-06T01:21:01;4.10;;;2.03;;
6791;SDS011;3433;48.730;9.108;2024-01-06T01:23:48;2.53;;;1.90;;
6791;SDS011;3433;48.730;9.108;2024-01-06T01:26:36;2.40;;;1.80;;
6791;SDS011;3433;48.730;9.108;2024-01-06T01:29:25;5.53;;;2.00;;
6791;SDS011;3433;48.730;9.108;2024-01-06T01:32:12;5.50;;;1.90;;
6791;SDS011;3433;48.730;9.108;2024-01-06T01:35:00;3.27;;;1.80;;
6791;SDS011;3433;48.730;9.108;2024-01-06T01:37:47;3.80;;;2.07;;
6791;SDS011;3433;48.730;9.108;2024-01-06T01:40:34;7.37;;;2.30;;
6791;SDS011;3433;48.730;9.108;2024-01-06T01:43:22;5.40;;;1.63;;
6791;SDS011;3433;48.730;9.108;2024-01-06T01:46:10;2.80;;;1.60;;
6791;SDS011;3433;48.730;9.108;2024-01-06T01:48:59;3.07;;;1.90;;
6791;SDS011;3433;48.730;9.108;2024-01-06T01:51:47;5.27;;;1.83;;
6791;SDS011;3433;48.730;9.108;2024-01-06T01:54:35;5.17;;;1.57;;
6791;SDS011;3433;48.730;9.108;2024-01-06T01:57:23;2.10;;;1.50;;
6791;SDS011;3433;48.730;9.108;2024-01-06T02:00:13;7.33;;;2.23;;
6791;SDS011;3433;48.730;9.108;2024-01-06T02:03:02;2.27;;;1.30;;
6791;SDS011;3433;48.730;9.108;2024-01-06T02:05:51;2.20;;;1.60;;
6791;SDS011;3433;48.730;9.108;2024-01-06T02:08:38;2.53;;;1.23;;
6791;SDS011;3433;48.730;9.108;2024-01-06T02:11:25;6.60;;;1.73;;
6791;SDS011;3433;48.730;9.108;2024-01-06T02:14:13;4.30;;;1.80;;
6791;SDS011;3433;48.730;9.108;2024-01-06T02:17:00;2.53;;;1.50;;
6791;SDS011;3433;48.730;9.108;2024-01-06T02:19:49;3.53;;;1.43;;
6791;SDS011;3433;48.730;9.108;2024-01-06T02:22:37;1.83;;;1.20;;
6791;SDS011;3433;48.730;9.108;2024-01-06T02:25:24;1.97;;;1.63;;
6791;SDS011;3433;48.730;9.108;2024-01-06T02:28:12;3.93;;;1.50;;
6791;SDS011;3433;48.730;9.108;2024-01-06T02:30:59;7.53;;;1.70;;
6791;SDS011;3433;48.730;9.108;2024-01-06T02:33:46;4.67;;;1.63;;
6791;SDS011;3433;48.730;9.108;2024-01-06T02:36:34;3.63;;;1.60;;
6791;SDS011;3433;48.730;9.108;2024-01-06T02:39:22;3.73;;;2.30;;
6791;SDS011;3433;48.730;9.108;2024-01-06T02:42:10;6.03;;;2.00;;
6791;SDS011;3433;48.730;9.108;2024-01-06T02:44:57;5.90;;;2.20;;
6791;SDS011;3433;48.730;9.108;2024-01-06T02:47:44;2.67;;;2.00;;
6791;SDS011;3433;48.730;9.108;2024-01-06T02:50:32;3.57;;;2.23;;
6791;SDS011;3433;48.730;9.108;2024-01-06T02:53:19;3.33;;;2.10;;
6791;SDS011;3433;48.730;9.108;2024-01-06T02:56:10;5.90;;;1.93;;
6791;SDS011;3433;48.730;9.108;2024-01-06T02:58:58;3.83;;;2.37;;
6791;SDS011;3433;48.730;9.108;2024-01-06T03:01:47;4.50;;;2.53;;
6791;SDS011;3433;48.730;9.108;2024-01-06T03:04:34;2.10;;;1.90;;
6791;SDS011;3433;48.730;9.108;2024-01-06T03:07:22;4.50;;;2.00;;
6791;SDS011;3433;48.730;9.108;2024-01-06T03:10:09;3.47;;;2.73;;
6791;SDS011;3433;48.730;9.108;2024-01-06T03:12:58;4.20;;;2.60;;
6791;SDS011;3433;48.730;9.108;2024-01-06T03:15:45;4.47;;;2.80;;
6791;SDS011;3433;48.730;9.108;2024-01-06T03:18:32;7.00;;;2.70;;
6791;SDS011;3433;48.730;9.108;2024-01-06T03:21:20;10.50;;;3.33;;
6791;SDS011;3433;48.730;9.108;2024-01-06T03:24:07;5.33;;;2.53;;
6791;SDS011;3433;48.730;9.108;2024-01-06T03:26:55;10.53;;;3.00;;
6791;SDS011;3433;48.730;9.108;2024-01-06T03:29:44;6.40;;;2.53;;
6791;SDS011;3433;48.730;9.108;2024-01-06T03:32:32;4.30;;;2.70;;
6791;SDS011;3433;48.730;9.108;2024-01-06T03:35:19;4.40;;;2.57;;
6791;SDS011;3433;48.730;9.108;2024-01-06T03:38:06;3.80;;;2.33;;
6791;SDS011;3433;48.730;9.108;2024-01-06T03:40:53;5.63;;;3.40;;
6791;SDS011;3433;48.730;9.108;2024-01-06T03:43:41;6.63;;;2.77;;
6791;SDS011;3433;48.730;9.108;2024-01-06T03:46:29;2.27;;;2.00;;
6791;SDS011;3433;48.730;9.108;2024-01-06T03:49:17;6.80;;;2.73;;
6791;SDS011;3433;48.730;9.108;2024-01-06T03:52:06;3.30;;;2.30;;
6791;SDS011;3433;48.730;9.108;2024-01-06T03:54:53;4.10;;;2.80;;
6791;SDS011;3433;48.730;9.108;2024-01-06T03:57:40;3.80;;;2.43;;
6791;SDS011;3433;48.730;9.108;2024-01-06T04:00:27;3.43;;;1.97;;
6791;SDS011;3433;48.730;9.108;2024-01-06T04:03:16;4.03;;;2.27;;
6791;SDS011;3433;48.730;9.108;2024-01-06T04:06:03;3.73;;;1.90;;
6791;SDS011;3433;48.730;9.108;2024-01-06T04:08:50;4.13;;;1.90;;
6791;SDS011;3433;48.730;9.108;2024-01-06T04:11:38;4.50;;;2.47;;
6791;SDS011;3433;48.730;9.108;2024-01-06T04:14:25;6.00;;;2.17;;
6791;SDS011;3433;48.730;9.108;2024-01-06T04:17:12;5.03;;;2.30;;
6791;SDS011;3433;48.730;9.108;2024-01-06T04:20:01;6.40;;;1.90;;
6791;SDS011;3433;48.730;9.108;2024-01-06T04:22:49;4.40;;;2.00;;
6791;SDS011;3433;48.730;9.108;2024-01-06T04:25:36;5.07;;;1.50;;
6791;SDS011;3433;48.730;9.108;2024-01-06T04:28:23;4.60;;;2.60;;
6791;SDS011;3433;48.730;9.108;2024-01-06T04:31:10;3.27;;;2.13;;
6791;SDS011;3433;48.730;9.108;2024-01-06T04:33:57;3.57;;;1.60;;
6791;SDS011;3433;48.730;9.108;2024-01-06T04:36:46;6.00;;;1.53;;
6791;SDS011;3433;48.730;9.108;2024-01-06T04:39:34;4.03;;;1.90;;
6791;SDS011;3433;48.730;9.108;2024-01-06T04:42:21;2.40;;;1.33;;
6791;SDS011;3433;48.730;9.108;2024-01-06T04:45:08;2.30;;;1.37;;
6791;SDS011;3433;48.730;9.108;2024-01-06T04:47:56;4.63;;;2.00;;
6791;SDS011;3433;48.730;9.108;2024-01-06T04:50:43;2.73;;;1.50;;
6791;SDS011;3433;48.730;9.108;2024-01-06T04:53:32;1.77;;;1.17;;
6791;SDS011;3433;48.730;9.108;2024-01-06T04:56:19;3.37;;;1.30;;
6791;SDS011;3433;48.730;9.108;2024-01-06T04:59:06;2.93;;;1.27;;
6791;SDS011;3433;48.730;9.108;2024-01-06T05:01:53;3.50;;;1.60;;
6791;SDS011;3433;48.730;9.108;2024-01-06T05:04:40;2.70;;;1.40;;
6791;SDS011;3433;48.730;9.108;2024-01-06T05:07:28;2.63;;;1.60;;
6791;SDS011;3433;48.730;9.108;2024-01-06T05:10:16;2.90;;;1.30;;
6791;SDS011;3433;48.730;9.108;2024-01-06T05:13:03;2.20;;;1.23;;
6791;SDS011;3433;48.730;9.108;2024-01-06T05:15:51;3.77;;;1.57;;
6791;SDS011;3433;48.730;9.108;2024-01-06T05:18:38;5.27;;;1.77;;
6791;SDS011;3433;48.730;9.108;2024-01-06T05:21:26;3.73;;;1.43;;
6791;SDS011;3433;48.730;9.108;2024-01-06T05:24:13;2.70;;;1.40;;
6791;SDS011;3433;48.730;9.108;2024-01-06T05:27:01;2.80;;;1.43;;
6791;SDS011;3433;48.730;9.108;2024-01-06T05:29:49;3.27;;;1.40;;
6791;SDS011;3433;48.730;9.108;2024-01-06T05:32:37;3.23;;;1.40;;
6791;SDS011;3433;48.730;9.108;2024-01-06T05:35:24;8.10;;;2.63;;
6791;SDS011;3433;48.730;9.108;2024-01-06T05:38:11;2.07;;;1.30;;
6791;SDS011;3433;48.730;9.108;2024-01-06T05:40:58;3.53;;;1.50;;
6791;SDS011;3433;48.730;9.108;2024-01-06T05:43:47;3.63;;;1.60;;
6791;SDS011;3433;48.730;9.108;2024-01-06T05:46:34;2.03;;;1.37;;
6791;SDS011;3433;48.730;9.108;2024-01-06T05:49:22;6.40;;;1.53;;
6791;SDS011;3433;48.730;9.108;2024-01-06T05:52:10;2.07;;;1.20;;
6791;SDS011;3433;48.730;9.108;2024-01-06T05:54:57;2.50;;;1.73;;
6791;SDS011;3433;48.730;9.108;2024-01-06T05:57:44;2.30;;;1.47;;
6791;SDS011;3433;48.730;9.108;2024-01-06T06:00:33;2.40;;;1.43;;
6791;SDS011;3433;48.730;9.108;2024-01-06T06:03:20;2.10;;;1.43;;
6791;SDS011;3433;48.730;9.108;2024-01-06T06:06:07;4.10;;;1.30;;
6791;SDS011;3433;48.730;9.108;2024-01-06T06:08:54;2.27;;;1.70;;
6791;SDS011;3433;48.730;9.108;2024-01-06T06:11:41;4.10;;;1.40;;
6791;SDS011;3433;48.730;9.108;2024-01-06T06:14:29;6.40;;;2.00;;
6791;SDS011;3433;48.730;9.108;2024-01-06T06:17:17;3.47;;;1.47;;
6791;SDS011;3433;48.730;9.108;2024-01-06T06:20:05;4.83;;;1.90;;
6791;SDS011;3433;48.730;9.108;2024-01-06T06:22:52;6.53;;;3.77;;
6791;SDS011;3433;48.730;9.108;2024-01-06T06:25:40;5.47;;;2.40;;
6791;SDS011;3433;48.730;9.108;2024-01-06T06:28:27;5.23;;;2.03;;
6791;SDS011;3433;48.730;9.108;2024-01-06T06:31:14;5.83;;;2.73;;
6791;SDS011;3433;48.730;9.108;2024-01-06T06:34:03;5.63;;;2.67;;
6791;SDS011;3433;48.730;9.108;2024-01-06T06:36:50;6.53;;;3.03;;
6791;SDS011;3433;48.730;9.108;2024-01-06T06:39:37;5.13;;;2.80;;
6791;SDS011;3433;48.730;9.108;2024-01-06T06:42:24;4.97;;;3.10;;
6791;SDS011;3433;48.730;9.108;2024-01-06T06:45:11;5.53;;;2.53;;
6791;SDS011;3433;48.730;9.108;2024-01-06T06:47:59;4.30;;;2.37;;
6791;SDS011;3433;48.730;9.108;2024-01-06T06:50:47;2.80;;;2.53;;
6791;SDS011;3433;48.730;9.108;2024-01-06T06:53:34;5.10;;;2.83;;
6791;SDS011;3433;48.730;9.108;2024-01-06T06:56:22;4.30;;;2.87;;
6791;SDS011;3433;48.730;9.108;2024-01-06T06:59:09;4.00;;;2.03;;
6791;SDS011;3433;48.730;9.108;2024-01-06T07:01:56;2.43;;;1.63;;
6791;SDS011;3433;48.730;9.108;2024-01-06T07:04:43;8.43;;;2.20;;
6791;SDS011;3433;48.730;9.108;2024-01-06T07:07:32;4.10;;;1.70;;
6791;SDS011;3433;48.730;9.108;2024-01-06T07:10:19;3.73;;;1.83;;
6791;SDS011;3433;48.730;9.108;2024-01-06T07:13:06;5.37;;;1.70;;
6791;SDS011;3433;48.730;9.108;2024-01-06T07:15:54;4.50;;;1.47;;
6791;SDS011;3433;48.730;9.108;2024-01-06T07:18:41;3.47;;;1.60;;
6791;SDS011;3433;48.730;9.108;2024-01-06T07:21:28;7.13;;;2.27;;
6791;SDS011;3433;48.730;9.108;2024-01-06T07:24:16;3.17;;;1.70;;
6791;SDS011;3433;48.730;9.108;2024-01-06T07:27:04;4.20;;;2.00;;
6791;SDS011;3433;48.730;9.108;2024-01-06T07:29:51;5.97;;;1.80;;
6791;SDS011;3433;48.730;9.108;2024-01-06T07:32:38;2.70;;;1.40;;
6791;SDS011;3433;48.730;9.108;2024-01-06T07:35:25;1.63;;;1.53;;
6791;SDS011;3433;48.730;9.108;2024-01-06T07:38:14;2.10;;;1.47;;
6791;SDS011;3433;48.730;9.108;2024-01-06T07:41:02;1.90;;;1.80;;
6791;SDS011;3433;48.730;9.108;2024-01-06T07:43:50;3.80;;;1.87;;
6791;SDS011;3433;48.730;9.108;2024-01-06T07:46:37;2.17;;;1.50;;
6791;SDS011;3433;48.730;9.108;2024-01-06T07:49:25;1.57;;;1.47;;
6791;SDS011;3433;48.730;9.108;2024-01-06T07:52:12;1.60;;;1.50;;
6791;SDS011;3433;48.730;9.108;2024-01-06T07:55:00;2.80;;;1.40;;
6791;SDS011;3433;48.730;9.108;2024-01-06T07:57:48;4.33;;;1.77;;
6791;SDS011;3433;48.730;9.108;2024-01-06T08:00:35;2.33;;;2.13;;
6791;SDS011;3433;48.730;9.108;2024-01-06T08:03:22;2.60;;;1.60;;
6791;SDS011;3433;48.730;9.108;2024-01-06T08:06:10;2.00;;;1.60;;
6791;SDS011;3433;48.730;9.108;2024-01-06T08:08:57;1.63;;;1.40;;
6791;SDS011;3433;48.730;9.108;2024-01-06T08:11:45;1.40;;;1.30;;
6791;SDS011;3433;48.730;9.108;2024-01-06T08:14:35;1.73;;;1.47;;
6791;SDS011;3433;48.730;9.108;2024-01-06T08:17:22;3.00;;;1.80;;
6791;SDS011;3433;48.730;9.108;2024-01-06T08:20:10;2.57;;;1.90;;
6791;SDS011;3433;48.730;9.108;2024-01-06T08:22:57;1.77;;;1.67;;
6791;SDS011;3433;48.730;9.108;2024-01-06T08:25:44;3.40;;;1.83;;
6791;SDS011;3433;48.730;9.108;2024-01-06T08:28:32;5.67;;;2.30;;
6791;SDS011;3433;48.730;9.108;2024-01-06T08:31:20;2.50;;;2.20;;
6791;SDS011;3433;48.730;9.108;2024-01-06T08:34:08;3.90;;;2.00;;
6791;SDS011;3433;48.730;9.108;2024-01-06T08:36:55;2.30;;;1.80;;
6791;SDS011;3433;48.730;9.108;2024-01-06T08:39:42;2.63;;;1.80;;
6791;SDS011;3433;48.730;9.108;2024-01-06T08:42:30;2.40;;;2.20;;
6791;SDS011;3433;48.730;9.108;2024-01-06T08:45:17;5.47;;;1.90;;
6791;SDS011;3433;48.730;9.108;2024-01-06T08:48:06;1.90;;;1.80;;
6791;SDS011;3433;48.730;9.108;2024-01-06T08:50:53;5.60;;;1.87;;
6791;SDS011;3433;48.730;9.108;2024-01-06T08:53:40;2.30;;;2.10;;
6791;SDS011;3433;48.730;9.108;2024-01-06T08:56:27;5.70;;;2.20;;
6791;SDS011;3433;48.730;9.108;2024-01-06T08:59:14;2.83;;;1.90;;
6791;SDS011;3433;48.730;9.108;2024-01-06T09:02:02;2.03;;;1.67;;
6791;SDS011;3433;48.730;9.108;2024-01-06T09:04:50;4.40;;;1.70;;
6791;SDS011;3433;48.730;9.108;2024-01-06T09:07:37;3.30;;;1.83;;
6791;SDS011;3433;48.730;9.108;2024-01-06T09:10:25;2.30;;;1.60;;
6791;SDS011;3433;48.730;9.108;2024-01-06T09:13:14;2.50;;;1.67;;
6791;SDS011;3433;48.730;9.108;2024-01-06T09:16:01;3.83;;;1.63;;
6791;SDS011;3433;48.730;9.108;2024-01-06T09:18:49;1.53;;;1.43;;
6791;SDS011;3433;48.730;9.108;2024-01-06T09:21:37;3.33;;;1.50;;
6791;SDS011;3433;48.730;9.108;2024-01-06T09:24:24;2.03;;;1.20;;
6791;SDS011;3433;48.730;9.108;2024-01-06T09:27:11;1.40;;;1.27;;
6791;SDS011;3433;48.730;9.108;2024-01-06T09:30:00;5.50;;;1.60;;
6791;SDS011;3433;48.730;9.108;2024-01-06T09:32:47;1.60;;;1.50;;
6791;SDS011;3433;48.730;9.108;2024-01-06T09:35:34;2.20;;;2.00;;
6791;SDS011;3433;48.730;9.108;2024-01-06T09:38:23;1.73;;;1.47;;
6791;SDS011;3433;48.730;9.108;2024-01-06T09:41:11;1.47;;;1.13;;
6791;SDS011;3433;48.730;9.108;2024-01-06T09:43:58;1.90;;;1.30;;
6791;SDS011;3433;48.730;9.108;2024-01-06T09:46:46;3.17;;;1.60;;
6791;SDS011;3433;48.730;9.108;2024-01-06T09:49:36;1.57;;;1.47;;
6791;SDS011;3433;48.730;9.108;2024-01-06T09:52:25;6.67;;;3.40;;
6791;SDS011;3433;48.730;9.108;2024-01-06T09:55:16;6.90;;;4.20;;
6791;SDS011;3433;48.730;9.108;2024-01-06T09:58:05;2.20;;;2.00;;
6791;SDS011;3433;48.730;9.108;2024-01-06T10:00:52;1.70;;;1.50;;
6791;SDS011;3433;48.730;9.108;2024-01-06T10:03:39;1.53;;;1.40;;
6791;SDS011;3433;48.730;9.108;2024-01-06T10:06:27;2.10;;;1.90;;
6791;SDS011;3433;48.730;9.108;2024-01-06T10:09:14;3.13;;;1.57;;
6791;SDS011;3433;48.730;9.108;2024-01-06T10:12:03;1.73;;;1.63;;
6791;SDS011;3433;48.730;9.108;2024-01-06T10:14:50;2.97;;;1.70;;
6791;SDS011;3433;48.730;9.108;2024-01-06T10:17:37;1.90;;;1.67;;
6791;SDS011;3433;48.730;9.108;2024-01-06T10:20:25;2.30;;;2.10;;
6791;SDS011;3433;48.730;9.108;2024-01-06T10:23:13;2.23;;;1.70;;
6791;SDS011;3433;48.730;9.108;2024-01-06T10:26:00;1.47;;;1.37;;
6791;SDS011;3433;48.730;9.108;2024-01-06T10:28:49;1.73;;;1.60;;
6791;SDS011;3433;48.730;9.108;2024-01-06T10:31:37;2.43;;;1.27;;
6791;SDS011;3433;48.730;9.108;2024-01-06T10:34:24;7.83;;;2.20;;
6791;SDS011;3433;48.730;9.108;2024-01-06T10:37:11;1.80;;;1.70;;
6791;SDS011;3433;48.730;9.108;2024-01-06T10:40:08;4.60;;;1.80;;
6791;SDS011;3433;48.730;9.108;2024-01-06T10:42:57;2.40;;;1.80;;
6791;SDS011;3433;48.730;9.108;2024-01-06T10:45:46;3.07;;;1.50;;
6791;SDS011;3433;48.730;9.108;2024-01-06T10:48:34;3.40;;;1.90;;
6791;SDS011;3433;48.730;9.108;2024-01-06T10:51:23;2.07;;;1.93;;
6791;SDS011;3433;48.730;9.108;2024-01-06T10:54:14;1.50;;;1.40;;
6791;SDS011;3433;48.730;9.108;2024-01-06T10:57:04;1.40;;;1.30;;
6791;SDS011;3433;48.730;9.108;2024-01-06T10:59:52;1.50;;;1.23;;
6791;SDS011;3433;48.730;9.108;2024-01-06T11:02:41;1.50;;;1.40;;
6791;SDS011;3433;48.730;9.108;2024-01-06T11:05:09;1.43;;;1.30;;
6791;SDS011;3433;48.730;9.108;2024-01-06T11:07:37;1.60;;;1.40;;
6791;SDS011;3433;48.730;9.108;2024-01-06T11:10:08;3.57;;;1.70;;
6791;SDS011;3433;48.730;9.108;2024-01-06T11:12:44;1.00;;;0.90;;
6791;SDS011;3433;48.730;9.108;2024-01-06T11:15:41;1.67;;;1.57;;
6791;SDS011;3433;48.730;9.108;2024-01-06T11:18:10;2.07;;;1.47;;
6791;SDS011;3433;48.730;9.108;2024-01-06T11:21:16;1.40;;;1.10;;
6791;SDS011;3433;48.730;9.108;2024-01-06T11:26:52;3.60;;;2.07;;
6791;SDS011;3433;48.730;9.108;2024-01-06T11:29:22;1.77;;;1.67;;
6791;SDS011;3433;48.730;9.108;2024-01-06T11:34:52;1.97;;;1.87;;
6791;SDS011;3433;48.730;9.108;2024-01-06T11:37:24;1.33;;;1.23;;
6791;SDS011;3433;48.730;9.108;2024-01-06T11:39:52;0.73;;;0.73;;
6791;SDS011;3433;48.730;9.108;2024-01-06T11:42:19;1.40;;;1.30;;
6791;SDS011;3433;48.730;9.108;2024-01-06T11:44:49;2.30;;;2.10;;
6791;SDS011;3433;48.730;9.108;2024-01-06T11:47:17;1.93;;;1.83;;
6791;SDS011;3433;48.730;9.108;2024-01-06T11:49:48;1.37;;;1.27;;
6791;SDS011;3433;48.730;9.108;2024-01-06T11:52:20;1.87;;;1.10;;
6791;SDS011;3433;48.730;9.108;2024-01-06T11:54:48;1.50;;;1.40;;
6791;SDS011;3433;48.730;9.108;2024-01-06T11:57:15;2.13;;;1.60;;
6791;SDS011;3433;48.730;9.108;2024-01-06T11:59:42;4.30;;;2.90;;
6791;SDS011;3433;48.730;9.108;2024-01-06T12:02:10;4.97;;;2.17;;
6791;SDS011;3433;48.730;9.108;2024-01-06T12:04:38;2.10;;;1.60;;
6791;SDS011;3433;48.730;9.108;2024-01-06T12:07:07;1.60;;;1.30;;
6791;SDS011;3433;48.730;9.108;2024-01-06T12:09:35;1.37;;;1.10;;
6791;SDS011;3433;48.730;9.108;2024-01-06T12:12:02;1.20;;;1.20;;
6791;SDS011;3433;48.730;9.108;2024-01-06T12:14:30;1.40;;;1.30;;
6791;SDS011;3433;48.730;9.108;2024-01-06T12:16:58;1.40;;;1.23;;
6791;SDS011;3433;48.730;9.108;2024-01-06T12:19:28;1.50;;;1.00;;
6791;SDS011;3433;48.730;9.108;2024-01-06T12:22:11;1.50;;;1.20;;
6791;SDS011;3433;48.730;9.108;2024-01-06T12:24:40;1.63;;;1.20;;
6791;SDS011;3433;48.730;9.108;2024-01-06T12:27:08;2.00;;;1.63;;
6791;SDS011;3433;48.730;9.108;2024-01-06T12:29:40;1.60;;;1.50;;
6791;SDS011;3433;48.730;9.108;2024-01-06T12:32:07;1.97;;;1.87;;
6791;SDS011;3433;48.730;9.108;2024-01-06T12:34:34;4.30;;;2.30;;
6791;SDS011;3433;48.730;9.108;2024-01-06T12:37:01;2.93;;;2.73;;
6791;SDS011;3433;48.730;9.108;2024-01-06T12:39:30;2.60;;;2.23;;
6791;SDS011;3433;48.730;9.108;2024-01-06T12:41:57;2.40;;;2.20;;
6791;SDS011;3433;48.730;9.108;2024-01-06T12:44:25;1.80;;;1.70;;
6791;SDS011;3433;48.730;9.108;2024-01-06T12:46:54;1.40;;;1.30;;
6791;SDS011;3433;48.730;9.108;2024-01-06T12:49:21;2.00;;;1.90;;
6791;SDS011;3433;48.730;9.108;2024-01-06T12:51:48;2.37;;;2.03;;
6791;SDS011;3433;48.730;9.108;2024-01-06T12:54:15;2.90;;;2.00;;
6791;SDS011;3433;48.730;9.108;2024-01-06T12:56:43;1.67;;;1.57;;
6791;SDS011;3433;48.730;9.108;2024-01-06T12:59:10;1.83;;;1.73;;
6791;SDS011;3433;48.730;9.108;2024-01-06T13:01:37;2.10;;;2.00;;
6791;SDS011;3433;48.730;9.108;2024-01-06T13:04:04;3.07;;;2.77;;
6791;SDS011;3433;48.730;9.108;2024-01-06T13:06:31;3.17;;;2.00;;
6791;SDS011;3433;48.730;9.108;2024-01-06T13:08:59;2.40;;;2.20;;
6791;SDS011;3433;48.730;9.108;2024-01-06T13:11:31;3.03;;;2.40;;
6791;SDS011;3433;48.730;9.108;2024-01-06T13:14:00;2.70;;;2.50;;
6791;SDS011;3433;48.730;9.108;2024-01-06T13:16:27;4.93;;;2.60;;
6791;SDS011;3433;48.730;9.108;2024-01-06T13:18:54;2.47;;;2.27;;
6791;SDS011;3433;48.730;9.108;2024-01-06T13:21:21;4.30;;;2.90;;
6791;SDS011;3433;48.730;9.108;2024-01-06T13:23:49;3.80;;;3.50;;
6791;SDS011;3433;48.730;9.108;2024-01-06T13:26:16;3.40;;;2.73;;
6791;SDS011;3433;48.730;9.108;2024-01-06T13:28:43;6.57;;;4.20;;
6791;SDS011;3433;48.730;9.108;2024-01-06T13:31:12;4.13;;;3.40;;
6791;SDS011;3433;48.730;9.108;2024-01-06T13:33:40;3.60;;;3.30;;
6791;SDS011;3433;48.730;9.108;2024-01-06T13:36:07;6.13;;;3.83;;
6791;SDS011;3433;48.730;9.108;2024-01-06T13:38:34;3.83;;;3.10;;
6791;SDS011;3433;48.730;9.108;2024-01-06T13:41:01;4.53;;;3.87;;
6791;SDS011;3433;48.730;9.108;2024-01-06T13:43:28;6.50;;;4.63;;
6791;SDS011;3433;48.730;9.108;2024-01-06T13:45:57;7.27;;;4.60;;
6791;SDS011;3433;48.730;9.108;2024-01-06T13:48:25;4.93;;;4.43;;
6791;SDS011;3433;48.730;9.108;2024-01-06T13:50:52;4.40;;;4.00;;
6791;SDS011;3433;48.730;9.108;2024-01-06T13:53:19;5.30;;;3.70;;
6791;SDS011;3433;48.730;9.108;2024-01-06T13:55:46;6.03;;;4.20;;
6791;SDS011;3433;48.730;9.108;2024-01-06T13:58:13;6.57;;;4.90;;
6791;SDS011;3433;48.730;9.108;2024-01-06T14:00:40;5.90;;;4.27;;
6791;SDS011;3433;48.730;9.108;2024-01-06T14:03:08;4.83;;;4.13;;
6791;SDS011;3433;48.730;9.108;2024-01-06T14:05:37;5.43;;;4.87;;
6791;SDS011;3433;48.730;9.108;2024-01-06T14:08:05;6.50;;;4.93;;
6791;SDS011;3433;48.730;9.108;2024-01-06T14:10:32;5.40;;;4.37;;
6791;SDS011;3433;48.730;9.108;2024-01-06T14:12:59;6.90;;;4.20;;
6791;SDS011;3433;48.730;9.108;2024-01-06T14:15:26;6.10;;;4.13;;
6791;SDS011;3433;48.730;9.108;2024-01-06T14:17:56;4.37;;;3.80;;
6791;SDS011;3433;48.730;9.108;2024-01-06T14:20:24;6.37;;;4.60;;
6791;SDS011;3433;48.730;9.108;2024-01-06T14:22:52;6.50;;;4.20;;
6791;SDS011;3433;48.730;9.108;2024-01-06T14:25:19;4.37;;;3.73;;
6791;SDS011;3433;48.730;9.108;2024-01-06T14:27:46;5.23;;;4.63;;
6791;SDS011;3433;48.730;9.108;2024-01-06T14:30:13;5.00;;;4.53;;
6791;SDS011;3433;48.730;9.108;2024-01-06T14:32:40;9.47;;;4.90;;
6791;SDS011;3433;48.730;9.108;2024-01-06T14:35:07;7.77;;;5.27;;
6791;SDS011;3433;48.730;9.108;2024-01-06T14:37:36;7.17;;;5.47;;
6791;SDS011;3433;48.730;9.108;2024-01-06T14:40:05;4.90;;;4.17;;
6791;SDS011;3433;48.730;9.108;2024-01-06T14:42:33;3.50;;;3.20;;
6791;SDS011;3433;48.730;9.108;2024-01-06T14:45:01;5.63;;;4.50;;
6791;SDS011;3433;48.730;9.108;2024-01-06T14:47:28;5.83;;;3.57;;
6791;SDS011;3433;48.730;9.108;2024-01-06T14:49:57;5.40;;;4.00;;
6791;SDS011;3433;48.730;9.108;2024-01-06T14:52:23;5.93;;;4.37;;
6791;SDS011;3433;48.730;9.108;2024-01-06T14:54:50;4.47;;;3.90;;
6791;SDS011;3433;48.730;9.108;2024-01-06T14:57:18;5.43;;;4.20;;
6791;SDS011;3433;48.730;9.108;2024-01-06T14:59:45;7.00;;;5.30;;
6791;SDS011;3433;48.730;9.108;2024-01-06T15:02:12;6.53;;;4.87;;
6791;SDS011;3433;48.730;9.108;2024-01-06T15:04:39;6.13;;;4.60;;
6791;SDS011;3433;48.730;9.108;2024-01-06T15:07:06;6.93;;;5.70;;
6791;SDS011;3433;48.730;9.108;2024-01-06T15:09:33;15.80;;;8.30;;
6791;SDS011;3433;48.730;9.108;2024-01-06T15:12:04;8.30;;;6.00;;
6791;SDS011;3433;48.730;9.108;2024-01-06T15:14:33;9.80;;;5.90;;
6791;SDS011;3433;48.730;9.108;2024-01-06T15:17:00;8.90;;;5.53;;
6791;SDS011;3433;48.730;9.108;2024-01-06T15:19:27;7.47;;;5.70;;
6791;SDS011;3433;48.730;9.108;2024-01-06T15:21:56;7.07;;;5.63;;
6791;SDS011;3433;48.730;9.108;2024-01-06T15:24:23;9.10;;;6.57;;
6791;SDS011;3433;48.730;9.108;2024-01-06T15:26:50;8.63;;;5.67;;
6791;SDS011;3433;48.730;9.108;2024-01-06T15:29:17;9.10;;;5.93;;
6791;SDS011;3433;48.730;9.108;2024-01-06T15:31:45;8.53;;;6.70;;
6791;SDS011;3433;48.730;9.108;2024-01-06T15:34:12;9.57;;;6.60;;
6791;SDS011;3433;48.730;9.108;2024-01-06T15:36:39;9.77;;;6.37;;
6791;SDS011;3433;48.730;9.108;2024-01-06T15:39:06;10.73;;;7.17;;
6791;SDS011;3433;48.730;9.108;2024-01-06T15:41:33;9.07;;;5.93;;
6791;SDS011;3433;48.730;9.108;2024-01-06T15:44:00;11.47;;;6.90;;
6791;SDS011;3433;48.730;9.108;2024-01-06T15:46:27;10.33;;;7.60;;
6791;SDS011;3433;48.730;9.108;2024-01-06T15:48:55;12.63;;;8.70;;
6791;SDS011;3433;48.730;9.108;2024-01-06T15:51:22;10.23;;;6.50;;
6791;SDS011;3433;48.730;9.108;2024-01-06T15:53:49;10.73;;;6.40;;
6791;SDS011;3433;48.730;9.108;2024-01-06T15:56:16;12.30;;;7.40;;
6791;SDS011;3433;48.730;9.108;2024-01-06T15:58:43;11.07;;;7.60;;
6791;SDS011;3433;48.730;9.108;2024-01-06T16:01:10;9.60;;;6.30;;
6791;SDS011;3433;48.730;9.108;2024-01-06T16:03:37;10.50;;;6.67;;
6791;SDS011;3433;48.730;9.108;2024-01-06T16:06:06;10.00;;;7.33;;
6791;SDS011;3433;48.730;9.108;2024-01-06T16:08:34;14.80;;;7.70;;
6791;SDS011;3433;48.730;9.108;2024-01-06T16:11:01;11.73;;;7.87;;
6791;SDS011;3433;48.730;9.108;2024-01-06T16:13:28;12.70;;;7.90;;
6791;SDS011;3433;48.730;9.108;2024-01-06T16:15:55;10.43;;;7.47;;
6791;SDS011;3433;48.730;9.108;2024-01-06T16:18:21;10.40;;;6.90;;
6791;SDS011;3433;48.730;9.108;2024-01-06T16:20:49;13.60;;;8.37;;
6791;SDS011;3433;48.730;9.108;2024-01-06T16:23:17;10.70;;;7.80;;
6791;SDS011;3433;48.730;9.108;2024-01-06T16:25:44;12.70;;;7.80;;
6791;SDS011;3433;48.730;9.108;2024-01-06T16:28:11;14.70;;;8.83;;
6791;SDS011;3433;48.730;9.108;2024-01-06T16:30:38;13.63;;;7.63;;
6791;SDS011;3433;48.730;9.108;2024-01-06T16:33:05;15.57;;;8.20;;
6791;SDS011;3433;48.730;9.108;2024-01-06T16:35:32;14.10;;;8.10;;
6791;SDS011;3433;48.730;9.108;2024-01-06T16:37:59;12.47;;;7.87;;
6791;SDS011;3433;48.730;9.108;2024-01-06T16:40:28;18.17;;;9.20;;
6791;SDS011;3433;48.730;9.108;2024-01-06T16:42:55;11.47;;;8.20;;
6791;SDS011;3433;48.730;9.108;2024-01-06T16:45:23;11.60;;;7.47;;